Wibaux, MT (59353)

1:03 AM MDT on September 01, 2015 (GMT -0600)
| | Change Station
CLOSE
Current Station
Personal Weather Station
Location: ,
Elevation: -9999 ft
Nearby Weather Stations

Elev -9999 ft 0.00 °N, 0.00 °E | Updated

Partly Cloudy
Partly Cloudy
55 °F
Feels Like 55 °F
N
8
Wind Variable Wind from South
Gusts mph

Today
High -- | Low -- °F
--% Chance of Precip.
Yesterday
High -- | Low -- °F
Precip. -- in
6:15 AM 7:36 PM
Waning Gibbous, 91% visible
Pressure 29.91 in
Visibility 10.0 miles
Clouds Scattered Clouds 5000 ft
Dew Point 44 °F
Humidity 67%
Rainfall -9999.00 in
Snow Depth Not available.
UV 0 out of 12
Pollen 10.60 out of 12
Air Quality Not available.
Flu Activity Not available.
METAR K20U 010635Z AUTO 00000KT 10SM SCT050 10/08 A2991 RMK AO2
Pressure 29.91 in
Visibility 10.0 miles
Clouds Scattered Clouds 5000 ft
Dew Point 44 °F
Humidity 67%
Rainfall -9999.00 in
Snow Depth Not available.
UV 0 out of 12
Pollen 10.60 out of 12
Air Quality Not available.
Flu Activity Not available.
METAR K20U 010635Z AUTO 00000KT 10SM SCT050 10/08 A2991 RMK AO2

10-Day Weather Forecast

×

Almanac

Astronomy

Sep. 01, 2015 Rise Set
Actual Time
Civil Twilight
Nautical Twilight
Astronomical Twilight
Moon
Length of Visible Light
Length of Day
Tomorrow will be .
, % of the Moon is Illuminated

Today's Extremes

State Highs State Lows

Community

WunderPhotos

Upload Photos

1,851,488 photos uploaded!

WunderBlogs® & News

Nearby

Air Quality

  Air Quality AQ Index Pollutant
Not available.

Snow Depth

Station Depth Elevation

Earthquake Activity

City Distance Mag. Time & Date
Minimum magnitude displayed is 2.5.

Coastal Water Temperatures

Place Temperature

Stations

Nearby Weather Stations

Station Location Temp. Windchill Dew Point Humidity Wind Precip. Elev Updated Type